Airfield :
LOGIN :

Register | Disclaimer

   EN    FR    IT 

 










Legend :    VFR   Marginal VFR   IFR   Intensive IFR   Very Intensive IFR
Visi :
Ceiling :
>= 8 km
>= 3000ft
5 to 8 km
1000 to 3000 ft
1500m to 5 km
500 to 1000 ft
800 to 1500m
200 to 500 ft
< 800m
< 200 ft
Symbols :   Thunderstorms  Fog  Heavy snow  Heavy precipitations  Wind > 20 kt
SIGMETs :     Misc.  Thunderstorms  Icing  Turbulence  Mountain Waves  Volcanic Ashes






- Airport Elevation : 245 ft
- IATA code : BIQ


LFBZ - Biarritz

CURRENT METAR :
  • 050730Z AUTO 25010KT 200V290 9999 -DZ SCT017 BKN025 OVC034 15/13 Q1013 TEMPO 4000 RA BECMG 28015G30KT

EXPIRED METARs :
  • 050700Z AUTO 28016KT 9999 FEW013 SCT019 BKN027 14/12 Q1013 TEMPO 4000 RA BECMG 28015G30KT
  • 050630Z AUTO 28017KT 9999 -RA FEW010 BKN018 BKN030 15/12 Q1013 TEMPO 4000 RA BECMG 28015G30KT
  • 050600Z AUTO 28014KT 9999 SCT012 BKN017 BKN025 14/13 Q1012 TEMPO 4000 RA BECMG 28015G30KT
  • 050530Z AUTO 28015KT 9999 BKN032 BKN040 BKN049 16/11 Q1012 TEMPO 4000 RA BECMG 28015G30KT
  • 050500Z AUTO 29016KT 9999 SCT033 BKN050 BKN082 16/10 Q1012 BECMG 26015G30KT

TAF TAF LFBZ
Valid from the 05 at 06:00 until the 06 at 06:00 UTC


050500Z 0506/0606 28015G30KT 9999 BKN030
TEMPO 0506/0514 4000 RA BKN020
BECMG 0516/0518 27012KT
TEMPO 0600/0606 4000 RA BKN014



MET'MAP, your aeronautical weather chart ! - Copyright ORBIFLY December 2007 - Disclaimer

ORBIFLY MET'MAP TEAM :

Programming & Development : Alexandra Zaïnal
Concept & original design : Baudouin d'Aumeries
Assistance for programming : Marc-Olivier Méhu
Technical & hardware support : Manuel Goepfert

Contact : metmap@orbifly.com




SOURCES & CREDITS :

   NOAA